Time;durP1;ratioP1;P1;durP2;ratioP2;P2;SDS_P1;SDS_P2;PMS_P1;PMS_P2;Temp;Humidity;BMP_temperature;BMP_pressure;BME280_temperature;BME280_humidity;BME280_pressure;Samples;Min_cycle;Max_cycle;Signal;HPM_P1;HPM_P2
2023/01/04 00:01:09;;;;;;;17.20;2.40;;;;;;;9.41;100.00;101714.44;5101841;28;20127;-79
2023/01/04 00:03:35;;;;;;;9.75;2.45;;;;;;;9.34;100.00;101704.84;5115537;27;20046;-78
2023/01/04 00:06:02;;;;;;;6.35;1.50;;;;;;;9.36;100.00;101702.91;5101454;27;20028;-79
2023/01/04 00:08:28;;;;;;;5.57;1.33;;;;;;;9.34;100.00;101692.06;5136693;27;20038;-78
2023/01/04 00:11:02;;;;;;;9.35;1.60;;;;;;;9.21;100.00;101669.19;5136663;27;20039;-78
2023/01/04 00:13:29;;;;;;;5.90;1.10;;;;;;;9.22;100.00;101681.03;5118143;27;20478;-79
2023/01/04 00:15:55;;;;;;;7.95;1.65;;;;;;;9.28;100.00;101672.44;5117088;27;20494;-78
2023/01/04 00:18:21;;;;;;;12.32;1.70;;;;;;;9.20;100.00;101659.25;5116863;27;20035;-79
2023/01/04 00:20:46;;;;;;;16.83;2.40;;;;;;;9.15;100.00;101655.88;5116644;28;20393;-78
2023/01/04 00:23:12;;;;;;;6.60;1.40;;;;;;;9.09;100.00;101664.47;5117442;27;20065;-79
2023/01/04 00:25:38;;;;;;;4.57;1.88;;;;;;;9.16;100.00;101647.59;5137062;28;20402;-79
2023/01/04 00:28:03;;;;;;;11.07;2.08;;;;;;;9.18;100.00;101644.78;5083679;28;20056;-79
2023/01/04 00:30:29;;;;;;;11.30;1.80;;;;;;;9.10;100.00;101636.16;5134734;28;20035;-79
2023/01/04 00:32:56;;;;;;;9.98;2.35;;;;;;;9.22;100.00;101646.38;5099244;28;20061;-79
2023/01/04 00:35:22;;;;;;;8.75;1.77;;;;;;;9.20;100.00;101637.38;5135739;28;20096;-78
2023/01/04 00:37:47;;;;;;;10.25;2.15;;;;;;;9.25;100.00;101643.44;5136166;28;20038;-78
2023/01/04 00:40:13;;;;;;;14.15;2.33;;;;;;;9.29;100.00;101641.41;5135292;28;20611;-78
2023/01/04 00:42:38;;;;;;;7.43;2.00;;;;;;;9.17;100.00;101643.03;5117152;28;20058;-78
2023/01/04 00:45:04;;;;;;;6.07;2.00;;;;;;;9.21;100.00;101630.94;5116544;28;20449;-79
2023/01/04 00:47:29;;;;;;;10.13;1.80;;;;;;;9.17;100.00;101622.06;5099092;28;20114;-78
2023/01/04 00:49:55;;;;;;;18.00;2.45;;;;;;;9.23;100.00;101620.81;5095729;28;20032;-77
2023/01/04 00:52:20;;;;;;;10.77;2.10;;;;;;;9.22;100.00;101621.78;5135719;28;20103;-78
2023/01/04 00:54:46;;;;;;;13.90;2.05;;;;;;;9.29;100.00;101601.28;5134439;27;20041;-78
2023/01/04 00:57:11;;;;;;;6.97;1.92;;;;;;;9.25;100.00;101594.25;5116652;28;20043;-78
2023/01/04 00:59:36;;;;;;;13.32;2.97;;;;;;;9.24;100.00;101589.75;5116297;28;20035;-78
2023/01/04 01:02:02;;;;;;;7.72;2.97;;;;;;;9.22;100.00;101583.53;5135685;28;20086;-79
2023/01/04 01:04:30;;;;;;;13.88;2.03;;;;;;;9.19;100.00;101579.13;5119213;28;20027;-78
2023/01/04 01:06:56;;;;;;;8.52;2.35;;;;;;;9.19;100.00;101587.31;5135351;28;20054;-78
2023/01/04 01:09:21;;;;;;;6.93;2.00;;;;;;;9.17;100.00;101570.13;5116628;28;20042;-78
2023/01/04 01:11:47;;;;;;;8.80;2.40;;;;;;;9.18;100.00;101573.75;5118953;28;20343;-78
2023/01/04 01:14:17;;;;;;;5.72;1.25;;;;;;;9.17;100.00;101572.00;5135928;28;20390;-78
2023/01/04 01:16:43;;;;;;;8.52;1.60;;;;;;;9.14;100.00;101570.31;5117753;28;20171;-78
2023/01/04 01:19:09;;;;;;;4.72;2.13;;;;;;;9.25;100.00;101566.03;5135482;28;20475;-78
2023/01/04 01:21:34;;;;;;;8.90;2.10;;;;;;;9.25;100.00;101564.22;5099738;28;20062;-78
2023/01/04 01:23:59;;;;;;;9.02;2.22;;;;;;;9.11;100.00;101562.31;5116762;28;20104;-78
2023/01/04 01:26:25;;;;;;;6.18;1.52;;;;;;;9.15;100.00;101565.72;5134366;27;20057;-78
2023/01/04 01:28:51;;;;;;;8.00;2.28;;;;;;;9.20;100.00;101560.88;5115452;27;20500;-78
2023/01/04 01:31:23;;;;;;;2.55;1.38;;;;;;;9.16;100.00;101545.66;5118631;27;20088;-78
2023/01/04 01:33:50;;;;;;;9.73;1.60;;;;;;;9.22;100.00;101553.47;5103485;27;20456;-78
2023/01/04 01:36:18;;;;;;;9.05;1.83;;;;;;;9.26;100.00;101562.34;5138024;27;20062;-78
2023/01/04 01:38:43;;;;;;;8.23;1.50;;;;;;;9.26;100.00;101563.22;5120137;27;20031;-78
2023/01/04 01:41:17;;;;;;;10.35;1.98;;;;;;;9.32;100.00;101551.03;5102736;27;20114;-78
2023/01/04 01:43:51;;;;;;;2.75;1.00;;;;;;;9.33;100.00;101550.94;5138243;27;20106;-78
2023/01/04 01:46:55;;;;;;;11.70;1.33;;;;;;;9.34;100.00;101541.75;5137907;27;20096;-78
2023/01/04 01:49:26;;;;;;;12.18;2.08;;;;;;;9.34;100.00;101549.94;5102055;27;20039;-78
2023/01/04 01:51:56;;;;;;;9.68;2.10;;;;;;;9.30;100.00;101544.81;5119964;27;20069;-78
2023/01/04 01:54:25;;;;;;;5.90;1.67;;;;;;;9.30;100.00;101545.66;5137974;27;20446;-78
2023/01/04 01:56:54;;;;;;;5.18;1.80;;;;;;;9.35;100.00;101543.53;5117813;27;20030;-78
2023/01/04 01:59:24;;;;;;;5.15;1.50;;;;;;;9.24;100.00;101542.44;5110727;27;20027;-78
2023/01/04 02:01:49;;;;;;;3.53;1.50;;;;;;;9.35;100.00;101543.53;5113045;27;20453;-78
2023/01/04 02:04:15;;;;;;;7.25;2.10;;;;;;;9.37;100.00;101546.16;5119445;27;20038;-78
2023/01/04 02:06:45;;;;;;;9.07;1.50;;;;;;;9.40;100.00;101534.16;5137077;27;20059;-78
2023/01/04 02:09:12;;;;;;;4.95;1.17;;;;;;;9.34;100.00;101536.28;5120409;27;20088;-78
2023/01/04 02:11:37;;;;;;;6.63;1.80;;;;;;;9.37;100.00;101540.69;5117884;27;20062;-77
2023/01/04 02:16:50;;;;;;;3.22;1.52;;;;;;;9.37;100.00;101527.91;5118071;27;20035;-78
2023/01/04 02:19:33;;;;;;;4.25;1.77;;;;;;;9.44;100.00;101522.91;5137178;27;20375;-77
2023/01/04 02:22:20;;;;;;;7.68;2.30;;;;;;;9.54;100.00;101534.16;5119289;27;20023;-78
2023/01/04 02:25:07;;;;;;;11.65;2.40;;;;;;;9.51;100.00;101528.88;5136827;27;20038;-78
2023/01/04 02:28:08;;;;;;;3.78;1.80;;;;;;;9.53;100.00;101508.66;5119124;27;20034;-78
2023/01/04 02:30:58;;;;;;;2.78;1.23;;;;;;;9.50;100.00;101510.72;5099897;27;20125;-78
2023/01/04 02:33:36;;;;;;;5.63;1.30;;;;;;;9.53;100.00;101513.28;5100542;27;20051;-78
2023/01/04 02:36:22;;;;;;;6.53;1.73;;;;;;;9.55;100.00;101511.31;5118777;27;20042;-78
2023/01/04 02:39:00;;;;;;;8.10;1.67;;;;;;;9.63;100.00;101500.75;5118351;27;20034;-78
2023/01/04 02:41:36;;;;;;;10.20;1.73;;;;;;;9.71;100.00;101497.53;5135719;27;20108;-79
2023/01/04 02:47:13;;;;;;;4.03;1.70;;;;;;;9.75;100.00;101494.47;5136721;27;20031;-77
2023/01/04 02:52:24;;;;;;;13.07;2.92;;;;;;;9.79;100.00;101499.75;5136035;27;20035;-77
2023/01/04 02:54:54;;;;;;;3.60;1.38;;;;;;;9.70;100.00;101485.69;5135599;27;20523;-77
2023/01/04 02:57:41;;;;;;;10.85;1.50;;;;;;;9.78;100.00;101478.88;5099746;27;20109;-77
2023/01/04 03:00:16;;;;;;;2.38;0.82;;;;;;;9.80;100.00;101485.09;5115957;27;20057;-77
2023/01/04 03:06:16;;;;;;;5.90;1.17;;;;;;;9.84;100.00;101462.94;5135051;27;20037;-77
2023/01/04 03:08:56;;;;;;;2.70;1.25;;;;;;;9.88;100.00;101450.78;5134188;27;20401;-77
2023/01/04 03:14:23;;;;;;;7.10;1.92;;;;;;;9.87;100.00;101468.19;5115620;27;20435;-77
2023/01/04 03:16:50;;;;;;;1.27;1.02;;;;;;;9.84;100.00;101453.81;5135192;27;20083;-78
2023/01/04 03:20:20;;;;;;;3.53;1.50;;;;;;;9.87;100.00;101442.69;5133069;27;20043;-78
2023/01/04 03:36:36;;;;;;;2.20;1.17;;;;;;;9.92;100.00;101399.50;5133141;27;20031;-77
2023/01/04 03:48:31;;;;;;;3.30;1.65;;;;;;;10.01;100.00;101422.63;5134773;27;20039;-77
2023/01/04 03:51:21;;;;;;;2.05;1.70;;;;;;;9.90;100.00;101410.56;5127183;27;20027;-77
2023/01/04 03:53:53;;;;;;;2.58;1.23;;;;;;;9.89;100.00;101389.63;5116254;27;20039;-77
2023/01/04 03:56:21;;;;;;;1.40;1.05;;;;;;;9.98;100.00;101400.94;5097347;27;20059;-77
2023/01/04 03:58:48;;;;;;;5.03;1.25;;;;;;;10.04;100.00;101395.94;5134655;27;20102;-77
2023/01/04 04:01:16;;;;;;;1.63;1.27;;;;;;;10.03;100.00;101394.16;5116310;27;20035;-78
2023/01/04 04:09:09;;;;;;;1.48;1.27;;;;;;;9.97;100.00;101371.81;5109802;27;20038;-78
2023/01/04 04:11:34;;;;;;;2.78;1.55;;;;;;;9.98;100.00;101366.25;5135062;27;20053;-77
2023/01/04 04:14:00;;;;;;;5.50;1.30;;;;;;;9.96;100.00;101376.41;5108397;28;20487;-77
2023/01/04 04:16:27;;;;;;;1.67;1.50;;;;;;;10.04;100.00;101384.13;5082407;27;20043;-78
2023/01/04 04:18:55;;;;;;;3.72;1.42;;;;;;;10.03;100.00;101394.16;5100759;27;20039;-78
2023/01/04 04:21:21;;;;;;;1.67;0.90;;;;;;;10.13;100.00;101361.56;5114906;28;20035;-78
2023/01/04 04:23:47;;;;;;;1.67;1.23;;;;;;;10.16;100.00;101374.19;5117096;28;20098;-78
2023/01/04 04:26:13;;;;;;;3.95;1.30;;;;;;;10.07;100.00;101373.84;5133216;27;20109;-77
2023/01/04 04:28:38;;;;;;;5.68;1.80;;;;;;;10.05;100.00;101370.34;5134381;28;20117;-78
2023/01/04 04:31:04;;;;;;;1.83;1.30;;;;;;;10.08;100.00;101369.22;5092094;28;20044;-78
2023/01/04 04:33:30;;;;;;;2.17;1.40;;;;;;;10.09;100.00;101358.19;5110602;28;20051;-78
2023/01/04 04:35:55;;;;;;;7.38;1.40;;;;;;;10.11;100.00;101355.34;5113876;28;20100;-77
2023/01/04 04:38:20;;;;;;;3.47;1.65;;;;;;;10.18;100.00;101344.84;5116026;28;20032;-78
2023/01/04 04:43:35;;;;;;;5.85;1.90;;;;;;;10.23;100.00;101345.38;5116467;28;20059;-77
2023/01/04 04:46:02;;;;;;;3.78;2.10;;;;;;;10.24;100.00;101350.75;5132976;27;20031;-78
2023/01/04 04:48:30;;;;;;;2.53;2.20;;;;;;;10.23;100.00;101326.22;5122783;27;20466;-78
2023/01/04 04:50:55;;;;;;;2.35;2.15;;;;;;;10.27;100.00;101327.78;5115743;28;20042;-77
2023/01/04 04:53:21;;;;;;;9.32;2.75;;;;;;;10.22;100.00;101319.91;5115732;27;20035;-78
2023/01/04 04:55:49;;;;;;;4.53;2.63;;;;;;;10.20;100.00;101320.97;5116079;28;20034;-78
2023/01/04 04:58:15;;;;;;;7.13;2.83;;;;;;;10.25;100.00;101324.28;5116266;28;20046;-78
2023/01/04 05:00:40;;;;;;;6.80;2.50;;;;;;;10.28;100.00;101327.69;5133568;27;20031;-78
2023/01/04 05:03:06;;;;;;;4.57;2.92;;;;;;;10.40;100.00;101323.22;5115913;27;20035;-78
2023/01/04 05:05:31;;;;;;;3.00;2.30;;;;;;;10.39;100.00;101318.72;5099560;27;20036;-78
2023/01/04 05:07:57;;;;;;;3.28;2.88;;;;;;;10.39;100.00;101335.16;5111186;28;20073;-78
2023/01/04 05:10:22;;;;;;;4.82;2.33;;;;;;;10.33;100.00;101327.41;5095633;27;20493;-78
2023/01/04 05:12:59;;;;;;;7.90;2.97;;;;;;;10.49;100.00;101321.69;5102519;27;20035;-78
2023/01/04 05:15:34;;;;;;;4.20;2.00;;;;;;;10.44;100.00;101322.00;5087779;27;20038;-78
2023/01/04 05:18:00;;;;;;;3.80;2.60;;;;;;;10.27;100.00;101314.09;5102425;27;20031;-78
2023/01/04 05:20:26;;;;;;;3.70;2.40;;;;;;;10.35;100.00;101321.81;5138260;27;20543;-78
2023/01/04 05:22:51;;;;;;;6.15;3.25;;;;;;;10.33;100.00;101307.34;5135239;27;20164;-78
2023/01/04 05:25:17;;;;;;;3.65;2.13;;;;;;;10.35;100.00;101302.66;5119454;27;20062;-78
2023/01/04 05:27:42;;;;;;;5.85;2.47;;;;;;;10.46;100.00;101309.09;5119469;27;20488;-78
2023/01/04 05:32:58;;;;;;;3.45;2.63;;;;;;;10.55;100.00;101291.13;5118641;27;20039;-78
2023/01/04 05:35:24;;;;;;;8.88;3.33;;;;;;;10.61;100.00;101300.78;5102538;27;20031;-78
2023/01/04 05:37:49;;;;;;;4.22;3.10;;;;;;;10.51;100.00;101297.84;5119172;27;20042;-78
2023/01/04 05:40:15;;;;;;;9.82;3.22;;;;;;;10.58;100.00;101301.00;5137213;27;20425;-77
2023/01/04 05:42:40;;;;;;;5.30;2.85;;;;;;;10.56;100.00;101292.00;5118289;27;20039;-78
2023/01/04 05:45:06;;;;;;;8.70;2.95;;;;;;;10.47;100.00;101291.69;5119691;27;20035;-78
2023/01/04 05:47:32;;;;;;;6.68;3.05;;;;;;;10.46;100.00;101283.56;5117641;27;20117;-78
2023/01/04 05:49:57;;;;;;;9.68;3.67;;;;;;;10.56;100.00;101283.78;5102105;27;20428;-78
2023/01/04 05:52:23;;;;;;;10.80;3.30;;;;;;;10.56;100.00;101287.44;5098262;28;20118;-78
2023/01/04 05:54:48;;;;;;;13.98;3.38;;;;;;;10.54;100.00;101270.22;5131914;27;20077;-78
2023/01/04 05:57:15;;;;;;;10.80;3.83;;;;;;;10.57;100.00;101272.72;5118066;27;20213;-78
2023/01/04 05:59:40;;;;;;;8.35;2.63;;;;;;;10.55;100.00;101279.31;5118520;27;20035;-78
2023/01/04 06:02:06;;;;;;;13.63;5.05;;;;;;;10.54;100.00;101252.91;5116706;27;20139;-78
2023/01/04 06:04:32;;;;;;;8.05;3.25;;;;;;;10.57;100.00;101260.91;5118745;27;20050;-78
2023/01/04 06:06:57;;;;;;;8.05;3.65;;;;;;;10.59;100.00;101264.41;5118039;27;20543;-78
2023/01/04 06:09:26;;;;;;;7.90;4.20;;;;;;;10.65;100.00;101261.22;5136122;27;20034;-78
2023/01/04 06:11:52;;;;;;;8.05;4.15;;;;;;;10.65;100.00;101259.34;5103604;27;20062;-77
2023/01/04 06:14:17;;;;;;;9.23;4.47;;;;;;;10.69;100.00;101260.03;5118202;27;20038;-78
2023/01/04 06:16:43;;;;;;;8.95;3.83;;;;;;;10.72;100.00;101254.28;5101457;27;20092;-78
2023/01/04 06:19:08;;;;;;;6.18;3.40;;;;;;;10.78;100.00;101253.84;5117330;27;20486;-78
2023/01/04 06:21:34;;;;;;;6.68;4.60;;;;;;;10.83;100.00;101265.34;5100804;27;20122;-78
2023/01/04 06:23:59;;;;;;;16.02;3.55;;;;;;;10.72;100.00;101257.03;5137332;27;20031;-78
2023/01/04 06:26:24;;;;;;;17.05;5.32;;;;;;;10.82;100.00;101260.88;5102882;27;20039;-78
2023/01/04 06:28:50;;;;;;;11.32;3.42;;;;;;;10.91;100.00;101266.66;5118535;27;20118;-78
2023/01/04 06:31:15;;;;;;;8.75;3.83;;;;;;;10.86;100.00;101261.50;5132942;27;20050;-78
2023/01/04 06:33:41;;;;;;;5.22;2.67;;;;;;;10.90;100.00;101262.16;5112466;28;20086;-78
2023/01/04 06:36:06;;;;;;;7.60;3.60;;;;;;;10.97;100.00;101260.69;5114330;28;20478;-78
2023/01/04 06:38:32;;;;;;;14.30;3.97;;;;;;;10.95;100.00;101259.94;5116202;28;20070;-78
2023/01/04 06:40:59;;;;;;;12.60;3.85;;;;;;;11.01;100.00;101265.84;5116943;28;20023;-78
2023/01/04 06:43:24;;;;;;;9.15;3.22;;;;;;;10.90;100.00;101248.47;5114378;28;20072;-78
2023/01/04 06:45:50;;;;;;;14.75;4.20;;;;;;;10.97;100.00;101271.66;5114645;28;20024;-78
2023/01/04 06:48:15;;;;;;;6.13;4.30;;;;;;;11.00;100.00;101255.91;5110789;28;20123;-77
2023/01/04 06:50:41;;;;;;;10.75;4.75;;;;;;;11.02;100.00;101253.03;5096348;28;20123;-78
2023/01/04 06:53:07;;;;;;;4.97;3.42;;;;;;;10.90;100.00;101248.47;5116404;28;20063;-78
2023/01/04 06:55:32;;;;;;;12.25;4.60;;;;;;;10.91;100.00;101242.88;5114248;28;20071;-78
2023/01/04 06:57:57;;;;;;;6.32;3.35;;;;;;;10.93;100.00;101251.84;5098071;28;20027;-77
2023/01/04 07:00:23;;;;;;;7.70;3.40;;;;;;;10.85;100.00;101241.47;5098183;28;20039;-79
2023/01/04 07:02:49;;;;;;;8.85;3.08;;;;;;;10.90;100.00;101240.25;5096702;28;20102;-78
2023/01/04 07:05:15;;;;;;;6.85;3.88;;;;;;;10.90;100.00;101245.72;5115788;28;20559;-79
2023/01/04 07:07:40;;;;;;;11.63;3.63;;;;;;;10.85;100.00;101235.09;5113298;28;20043;-78
2023/01/04 07:10:06;;;;;;;8.38;4.72;;;;;;;10.89;100.00;101247.59;5116161;28;20043;-79
2023/01/04 07:12:32;;;;;;;7.72;4.55;;;;;;;10.91;100.00;101239.25;5097619;28;20124;-79
2023/01/04 07:14:57;;;;;;;6.93;2.78;;;;;;;10.88;100.00;101229.41;5115701;28;20039;-80
2023/01/04 07:17:23;;;;;;;9.15;4.05;;;;;;;10.93;100.00;101229.91;5114850;28;20027;-79
2023/01/04 07:19:48;;;;;;;9.98;4.50;;;;;;;10.94;100.00;101206.16;5114863;28;20490;-79
2023/01/04 07:22:14;;;;;;;11.93;5.10;;;;;;;11.02;100.00;101228.38;5117508;28;20044;-80
2023/01/04 07:24:39;;;;;;;7.20;4.15;;;;;;;11.08;100.00;101238.00;5098316;28;20027;-83
2023/01/04 07:27:05;;;;;;;10.85;4.45;;;;;;;11.10;100.00;101233.25;5095405;28;20053;-80
2023/01/04 07:29:30;;;;;;;8.45;4.70;;;;;;;11.14;100.00;101216.47;5097250;28;20050;-79
2023/01/04 07:31:56;;;;;;;8.48;4.43;;;;;;;11.16;100.00;101217.22;5112543;28;20049;-79
2023/01/04 07:34:23;;;;;;;8.85;4.55;;;;;;;11.23;100.00;101225.84;5108501;28;20058;-79
2023/01/04 07:36:49;;;;;;;14.68;4.65;;;;;;;11.29;100.00;101213.56;5115169;28;20397;-79
2023/01/04 07:39:19;;;;;;;10.98;4.88;;;;;;;11.42;100.00;101211.63;5098816;28;20035;-79
2023/01/04 07:41:45;;;;;;;6.82;4.28;;;;;;;11.32;100.00;101203.22;5115227;28;20038;-79
2023/01/04 07:44:11;;;;;;;8.27;4.10;;;;;;;11.34;100.00;101216.81;5116398;28;20107;-79
2023/01/04 07:46:37;;;;;;;7.93;4.35;;;;;;;11.35;100.00;101199.41;5116636;28;20032;-79
2023/01/04 07:49:03;;;;;;;5.28;3.30;;;;;;;11.24;100.00;101191.97;5114874;28;20073;-79
2023/01/04 07:51:30;;;;;;;5.78;3.50;;;;;;;11.24;100.00;101188.38;5116190;28;20028;-79
2023/01/04 07:53:55;;;;;;;4.82;2.72;;;;;;;11.31;100.00;101193.25;5098357;28;20032;-79
2023/01/04 07:56:21;;;;;;;5.85;2.00;;;;;;;11.28;100.00;101196.25;5114638;28;20119;-79
2023/01/04 07:58:46;;;;;;;8.90;3.10;;;;;;;11.32;100.00;101186.78;5114830;28;20043;-79
2023/01/04 08:01:15;;;;;;;8.82;3.00;;;;;;;11.39;100.00;101176.22;5097845;28;20035;-79
2023/01/04 08:03:40;;;;;;;7.63;2.65;;;;;;;11.34;100.00;101173.81;5115014;28;20069;-79
2023/01/04 08:06:08;;;;;;;8.95;2.53;;;;;;;11.39;100.00;101168.84;5097676;28;20121;-78
2023/01/04 08:08:34;;;;;;;9.85;2.88;;;;;;;11.35;100.00;101164.63;5097548;28;20035;-79
2023/01/04 08:11:01;;;;;;;9.43;2.70;;;;;;;11.42;100.00;101165.00;5114819;28;20035;-79
2023/01/04 08:13:31;;;;;;;4.18;1.90;;;;;;;11.54;100.00;101193.34;5114861;28;20071;-79
2023/01/04 08:15:56;;;;;;;18.85;3.03;;;;;;;11.69;100.00;101177.56;5115842;28;20081;-79
2023/01/04 08:18:22;;;;;;;8.80;2.25;;;;;;;11.57;100.00;101185.75;5114340;28;20059;-79
2023/01/04 08:20:48;;;;;;;9.35;2.28;;;;;;;11.62;100.00;101176.28;5110917;28;20488;-79
2023/01/04 08:23:13;;;;;;;7.70;1.48;;;;;;;11.59;100.00;101171.91;5077489;28;20435;-79
2023/01/04 08:25:38;;;;;;;7.70;2.15;;;;;;;11.57;100.00;101184.88;5094220;28;20039;-79
2023/01/04 08:28:04;;;;;;;9.40;2.45;;;;;;;11.55;100.00;101174.03;5095195;28;20369;-79
2023/01/04 08:30:30;;;;;;;10.63;2.80;;;;;;;11.69;100.00;101175.69;5077799;28;20050;-79
2023/01/04 08:32:56;;;;;;;6.13;2.38;;;;;;;11.59;100.00;101192.00;5095515;28;20468;-79
2023/01/04 08:35:22;;;;;;;8.25;2.55;;;;;;;11.56;100.00;101192.25;5090759;28;20109;-79
2023/01/04 08:37:47;;;;;;;7.22;3.53;;;;;;;11.49;100.00;101188.22;5075250;28;20036;-79
2023/01/04 08:40:13;;;;;;;7.38;2.45;;;;;;;11.57;100.00;101184.88;5078076;28;20040;-79
2023/01/04 08:42:38;;;;;;;9.93;2.75;;;;;;;11.69;100.00;101197.66;5095290;28;20496;-79
2023/01/04 08:45:04;;;;;;;10.70;2.83;;;;;;;11.69;100.00;101203.13;5078021;28;20052;-79
2023/01/04 08:47:31;;;;;;;15.45;2.97;;;;;;;11.69;100.00;101204.97;5077937;28;20597;-79
2023/01/04 08:49:57;;;;;;;4.43;2.47;;;;;;;11.68;100.00;101206.00;5079078;28;20432;-79
2023/01/04 08:52:23;;;;;;;4.13;2.13;;;;;;;11.58;100.00;101198.47;5077442;28;20064;-79
2023/01/04 08:54:49;;;;;;;9.93;2.60;;;;;;;11.62;100.00;101182.66;5077781;28;20033;-78
2023/01/04 08:57:18;;;;;;;12.93;2.83;;;;;;;11.70;100.00;101202.13;5061181;28;20068;-78
2023/01/04 08:59:43;;;;;;;13.43;2.78;;;;;;;11.72;100.00;101199.25;5077421;28;20551;-79
2023/01/04 09:02:22;;;;;;;6.07;2.00;;;;;;;11.83;100.00;101204.78;5077938;28;20025;-79
2023/01/04 09:04:48;;;;;;;15.65;3.92;;;;;;;11.82;100.00;101194.78;5078334;28;20032;-78
2023/01/04 09:07:15;;;;;;;15.50;2.80;;;;;;;11.86;100.00;101201.78;5077983;28;20039;-78
2023/01/04 09:09:41;;;;;;;7.28;1.80;;;;;;;11.91;100.00;101188.63;5062417;28;20411;-79
2023/01/04 09:12:07;;;;;;;6.45;1.52;;;;;;;11.95;100.00;101209.34;5077964;28;20480;-80
2023/01/04 09:14:32;;;;;;;7.38;1.67;;;;;;;11.95;100.00;101212.09;5078213;28;20089;-80
2023/01/04 09:16:58;;;;;;;9.55;1.88;;;;;;;11.94;100.00;101201.22;5076242;28;20032;-77
2023/01/04 09:19:23;;;;;;;5.80;1.65;;;;;;;12.04;100.00;101209.59;5083299;28;20089;-80
2023/01/04 09:21:49;;;;;;;14.75;1.85;;;;;;;11.91;100.00;101187.72;5079659;28;20109;-78
2023/01/04 09:24:14;;;;;;;6.15;1.20;;;;;;;12.07;100.00;101207.47;5097585;28;20549;-79
2023/01/04 09:26:40;;;;;;;8.50;1.42;;;;;;;12.09;100.00;101210.09;5080846;28;20032;-79
2023/01/04 09:29:05;;;;;;;6.00;1.25;;;;;;;12.04;100.00;101210.47;5064574;28;20202;-79
2023/01/04 09:31:31;;;;;;;10.63;1.85;;;;;;;12.02;100.00;101208.81;5097263;28;20092;-79
2023/01/04 09:33:57;;;;;;;3.00;1.90;;;;;;;12.14;100.00;101203.22;5107310;27;20138;-79
2023/01/04 09:36:23;;;;;;;8.70;1.73;;;;;;;12.06;100.00;101210.34;5121491;27;20107;-79
2023/01/04 09:38:50;;;;;;;8.30;1.90;;;;;;;12.03;100.00;101199.59;5120845;27;20027;-79
2023/01/04 09:41:30;;;;;;;6.63;1.50;;;;;;;11.97;100.00;101211.06;5121911;27;20039;-79
2023/01/04 09:44:01;;;;;;;7.43;1.63;;;;;;;11.99;100.00;101209.97;5104074;27;20027;-79
2023/01/04 09:46:33;;;;;;;8.52;1.80;;;;;;;12.02;100.00;101209.72;5121238;27;20050;-79
2023/01/04 09:49:27;;;;;;;7.85;2.92;;;;;;;11.98;100.00;101204.59;5121211;27;20386;-79
2023/01/04 09:52:22;;;;;;;5.82;1.67;;;;;;;12.01;100.00;101213.44;5119708;27;20031;-79
2023/01/04 09:54:56;;;;;;;5.60;1.33;;;;;;;12.00;100.00;101210.81;5120776;27;20027;-79
2023/01/04 09:57:26;;;;;;;9.82;1.48;;;;;;;12.04;100.00;101209.59;5104063;27;20027;-79
2023/01/04 10:00:15;;;;;;;5.10;1.27;;;;;;;11.98;100.00;101212.81;5138736;27;20027;-79
2023/01/04 10:02:45;;;;;;;9.35;1.50;;;;;;;11.88;100.00;101199.78;5103537;27;20050;-79
2023/01/04 10:05:22;;;;;;;3.90;1.67;;;;;;;11.97;100.00;101194.59;5139600;27;20031;-79
2023/01/04 10:07:48;;;;;;;11.85;2.13;;;;;;;11.92;100.00;101193.13;5120879;27;20038;-79
2023/01/04 10:10:16;;;;;;;8.98;2.35;;;;;;;11.99;100.00;101198.13;5120487;27;20143;-79
2023/01/04 10:13:03;;;;;;;8.10;2.53;;;;;;;12.04;100.00;101184.91;5139613;27;20470;-79
2023/01/04 10:15:41;;;;;;;11.35;2.35;;;;;;;11.86;100.00;101192.69;5120423;27;20031;-79
2023/01/04 10:18:50;;;;;;;8.77;2.22;;;;;;;11.78;100.00;101190.56;5138942;27;20031;-79
2023/01/04 10:21:24;;;;;;;7.85;2.08;;;;;;;11.81;100.00;101176.59;5100075;27;20050;-79
2023/01/04 10:24:31;;;;;;;10.75;2.75;;;;;;;11.85;100.00;101191.81;5121525;27;20413;-79
2023/01/04 10:27:11;;;;;;;4.82;2.45;;;;;;;11.79;100.00;101175.84;5104539;27;20034;-79
2023/01/04 10:30:02;;;;;;;14.15;2.83;;;;;;;11.87;100.00;101172.47;5120707;27;20078;-79
2023/01/04 10:32:38;;;;;;;9.48;2.50;;;;;;;11.83;100.00;101173.72;5119750;27;20035;-79
2023/01/04 10:35:15;;;;;;;9.15;2.80;;;;;;;11.87;100.00;101156.91;5099618;28;20043;-79
2023/01/04 10:37:40;;;;;;;15.25;3.40;;;;;;;11.87;100.00;101165.13;5116758;28;20073;-79
2023/01/04 10:40:13;;;;;;;11.90;3.50;;;;;;;11.88;100.00;101163.25;5116796;28;20044;-79
2023/01/04 10:42:49;;;;;;;10.18;3.65;;;;;;;11.87;100.00;101159.66;5119036;28;20039;-79
2023/01/04 10:45:32;;;;;;;8.43;3.63;;;;;;;11.84;100.00;101159.88;5116937;28;20046;-79
2023/01/04 10:48:14;;;;;;;13.60;4.18;;;;;;;11.89;100.00;101168.63;5116832;28;20053;-79
2023/01/04 10:50:56;;;;;;;13.63;3.08;;;;;;;11.94;100.00;101171.91;5117649;28;20038;-79
2023/01/04 10:53:38;;;;;;;9.15;3.00;;;;;;;11.89;100.00;101154.03;5116675;28;20161;-79
2023/01/04 10:56:06;;;;;;;15.32;3.75;;;;;;;11.88;100.00;101164.13;5116939;28;20031;-79
2023/01/04 10:58:52;;;;;;;14.05;3.17;;;;;;;11.98;100.00;101152.44;5116303;28;20031;-79
2023/01/04 11:01:42;;;;;;;9.93;3.17;;;;;;;11.92;100.00;101151.94;5117056;28;20042;-78
2023/01/04 11:04:28;;;;;;;13.90;3.45;;;;;;;11.92;100.00;101154.69;5117994;28;20023;-79
2023/01/04 11:07:17;;;;;;;7.53;2.90;;;;;;;11.93;100.00;101148.19;5117109;28;20092;-79
2023/01/04 11:09:51;;;;;;;10.60;3.45;;;;;;;11.94;100.00;101143.59;5118452;28;20065;-79
2023/01/04 11:12:20;;;;;;;15.77;3.58;;;;;;;11.97;100.00;101140.63;5118166;28;20032;-79
2023/01/04 11:14:46;;;;;;;8.48;2.88;;;;;;;11.99;100.00;101138.63;5118246;27;20055;-79
2023/01/04 11:17:11;;;;;;;6.57;2.60;;;;;;;11.97;100.00;101129.63;5100006;28;20483;-79
2023/01/04 11:19:38;;;;;;;13.32;3.20;;;;;;;12.04;100.00;101138.25;5121938;28;20032;-78
2023/01/04 11:22:10;;;;;;;7.70;2.90;;;;;;;11.93;100.00;101137.22;5118175;28;20030;-78
2023/01/04 11:24:37;;;;;;;13.48;2.70;;;;;;;11.94;100.00;101132.63;5117199;28;20502;-79
2023/01/04 11:27:15;;;;;;;14.88;2.03;;;;;;;11.94;100.00;101133.50;5102958;28;20054;-79
2023/01/04 11:29:44;;;;;;;9.10;2.75;;;;;;;12.03;100.00;101125.50;5123902;28;20031;-79
2023/01/04 11:32:38;;;;;;;8.63;3.25;;;;;;;12.03;100.00;101139.22;5106984;28;20027;-79
2023/01/04 11:35:04;;;;;;;9.40;2.92;;;;;;;12.05;100.00;101140.88;5136198;27;20043;-78
2023/01/04 11:37:40;;;;;;;12.57;3.03;;;;;;;12.07;100.00;101151.72;5144278;27;20031;-79
2023/01/04 11:40:26;;;;;;;8.68;2.90;;;;;;;12.07;100.00;101136.13;5107701;27;20031;-79
2023/01/04 11:43:17;;;;;;;14.13;3.95;;;;;;;12.06;100.00;101130.75;5106892;27;20382;-79
2023/01/04 11:45:58;;;;;;;7.93;3.40;;;;;;;12.20;100.00;101138.75;5109302;27;20117;-79
2023/01/04 11:48:53;;;;;;;7.25;2.60;;;;;;;12.15;100.00;101119.03;5122639;27;20035;-78
2023/01/04 11:51:28;;;;;;;4.05;2.03;;;;;;;12.06;100.00;101136.25;5123489;27;20044;-79
2023/01/04 11:54:03;;;;;;;12.60;3.47;;;;;;;12.12;100.00;101149.47;5120291;27;20439;-78
2023/01/04 11:56:31;;;;;;;6.53;2.60;;;;;;;12.05;100.00;101132.63;5119194;27;20023;-79
2023/01/04 11:59:03;;;;;;;15.23;3.28;;;;;;;12.05;100.00;101140.88;5118779;27;20060;-77
2023/01/04 12:01:30;;;;;;;11.35;2.42;;;;;;;12.07;100.00;101138.00;5137285;27;20073;-79
2023/01/04 12:03:56;;;;;;;7.15;2.47;;;;;;;12.02;100.00;101148.44;5119026;27;20394;-77
2023/01/04 12:06:37;;;;;;;7.15;2.08;;;;;;;12.08;100.00;101140.59;5118957;27;20034;-78
2023/01/04 12:09:03;;;;;;;7.20;2.63;;;;;;;12.13;100.00;101130.13;5118030;27;20038;-77
2023/01/04 12:11:32;;;;;;;7.05;1.63;;;;;;;12.07;100.00;101133.38;5084348;28;20031;-79
2023/01/04 12:13:59;;;;;;;6.65;2.40;;;;;;;12.15;100.00;101119.03;5100954;28;20077;-77
2023/01/04 12:16:52;;;;;;;6.50;2.22;;;;;;;12.25;100.00;101116.41;5102122;27;20035;-78
2023/01/04 12:19:20;;;;;;;5.18;1.70;;;;;;;12.18;100.00;101115.16;5118716;28;20114;-79